createdAt,value
2023-03-27T00:01:13.271Z,2.58
2023-03-27T00:03:40.866Z,2.50
2023-03-27T00:06:09.688Z,2.44
2023-03-27T00:08:36.864Z,2.39
2023-03-27T00:11:06.928Z,2.35
2023-03-27T00:13:34.667Z,2.28
2023-03-27T00:16:02.999Z,2.23
2023-03-27T00:18:30.078Z,2.18
2023-03-27T00:20:59.235Z,2.15
2023-03-27T00:23:26.498Z,2.14
2023-03-27T00:25:54.818Z,2.13
2023-03-27T00:28:21.945Z,2.11
2023-03-27T00:30:49.265Z,2.15
2023-03-27T00:33:16.474Z,2.22
2023-03-27T00:35:47.521Z,2.27
2023-03-27T00:38:15.572Z,2.33
2023-03-27T00:40:46.852Z,2.39
2023-03-27T00:43:34.193Z,2.42
2023-03-27T00:46:21.526Z,2.49
2023-03-27T00:48:51.518Z,2.52
2023-03-27T00:51:20.402Z,2.58
2023-03-27T00:53:47.885Z,2.65
2023-03-27T00:56:16.738Z,2.71
2023-03-27T00:58:49.009Z,2.73
2023-03-27T01:01:17.069Z,2.79
2023-03-27T01:03:45.743Z,2.85
2023-03-27T01:06:14.347Z,2.90
2023-03-27T01:08:43.150Z,2.92
2023-03-27T01:11:32.904Z,2.87
2023-03-27T01:14:08.610Z,2.78
2023-03-27T01:16:36.800Z,2.65
2023-03-27T01:19:22.769Z,2.54
2023-03-27T01:21:52.821Z,2.49
2023-03-27T01:24:22.937Z,2.39
2023-03-27T01:26:58.316Z,2.32
2023-03-27T01:29:26.243Z,2.26
2023-03-27T01:32:17.814Z,2.19
2023-03-27T01:35:02.169Z,2.15
2023-03-27T01:37:32.300Z,2.14
2023-03-27T01:40:18.028Z,2.12
2023-03-27T01:42:49.352Z,2.05
2023-03-27T01:45:16.261Z,1.96
2023-03-27T01:47:51.716Z,1.89
2023-03-27T01:50:21.852Z,1.85
2023-03-27T01:53:15.482Z,1.80
2023-03-27T01:55:47.348Z,1.78
2023-03-27T01:58:17.224Z,1.73
2023-03-27T02:00:51.749Z,1.66
2023-03-27T02:03:21.122Z,1.58
2023-03-27T02:05:58.558Z,1.57
2023-03-27T02:08:49.657Z,1.53
2023-03-27T02:11:21.425Z,1.51
2023-03-27T02:13:51.705Z,1.52
2023-03-27T02:16:20.982Z,1.53
2023-03-27T02:18:56.880Z,1.51
2023-03-27T02:21:24.223Z,1.50
2023-03-27T02:23:51.915Z,1.53
2023-03-27T02:26:19.398Z,1.52
2023-03-27T02:28:51.785Z,1.55
2023-03-27T02:31:37.583Z,1.54
2023-03-27T02:34:20.878Z,1.51
2023-03-27T02:36:59.123Z,1.47
2023-03-27T02:39:43.345Z,1.39
2023-03-27T02:42:18.232Z,1.36
2023-03-27T02:45:17.694Z,1.32
2023-03-27T02:48:08.126Z,1.27
2023-03-27T02:50:54.827Z,1.26
2023-03-27T02:53:24.198Z,1.23
2023-03-27T02:55:54.076Z,1.22
2023-03-27T02:58:27.209Z,1.17
2023-03-27T03:01:18.412Z,1.15
2023-03-27T03:04:12.454Z,1.14
2023-03-27T03:06:59.279Z,1.17
2023-03-27T03:09:28.299Z,1.18
2023-03-27T03:11:55.768Z,1.16
2023-03-27T03:14:45.929Z,1.07
2023-03-27T03:17:13.728Z,1.01
2023-03-27T03:19:41.137Z,0.95
2023-03-27T03:22:08.284Z,0.97
2023-03-27T03:24:37.116Z,0.95
2023-03-27T03:27:04.687Z,0.91
2023-03-27T03:29:40.327Z,0.92
2023-03-27T03:32:34.271Z,0.98
2023-03-27T03:35:01.976Z,1.01
2023-03-27T03:37:38.955Z,1.02
2023-03-27T03:40:14.992Z,1.08
2023-03-27T03:42:47.164Z,1.08
2023-03-27T03:45:15.654Z,1.09
2023-03-27T03:47:44.392Z,1.13
2023-03-27T03:50:12.576Z,1.18
2023-03-27T03:52:40.441Z,1.25
2023-03-27T03:55:08.437Z,1.33
2023-03-27T03:57:36.891Z,1.36
2023-03-27T04:00:09.069Z,1.42
2023-03-27T04:02:54.258Z,1.53
2023-03-27T04:05:22.579Z,1.69
2023-03-27T04:07:54.657Z,1.89
2023-03-27T04:10:41.770Z,2.15
2023-03-27T04:13:18.457Z,2.46
2023-03-27T04:15:56.665Z,2.81
2023-03-27T04:18:33.291Z,3.15
2023-03-27T04:21:04.621Z,3.47
2023-03-27T04:23:32.150Z,3.80
2023-03-27T04:26:03.524Z,4.18
2023-03-27T04:28:57.099Z,4.50
2023-03-27T04:31:46.762Z,4.85
2023-03-27T04:34:32.933Z,5.25
2023-03-27T04:37:07.983Z,5.38
2023-03-27T04:39:43.155Z,5.35
2023-03-27T04:42:11.031Z,5.63
2023-03-27T04:44:39.390Z,6.19
2023-03-27T04:47:09.032Z,6.50
2023-03-27T04:49:44.175Z,6.72
2023-03-27T04:52:26.222Z,6.96
2023-03-27T04:54:54.196Z,7.22
2023-03-27T04:57:22.723Z,7.24
2023-03-27T04:59:50.562Z,7.32
2023-03-27T05:02:45.112Z,7.56
2023-03-27T05:05:25.696Z,7.78
2023-03-27T05:07:53.540Z,8.10
2023-03-27T05:10:24.147Z,8.46
2023-03-27T05:12:53.252Z,8.68
2023-03-27T05:15:21.773Z,8.80
2023-03-27T05:17:55.382Z,8.93
2023-03-27T05:20:25.443Z,9.11
2023-03-27T05:22:56.739Z,9.18
2023-03-27T05:25:29.271Z,9.36
2023-03-27T05:27:58.524Z,9.64
2023-03-27T05:30:29.669Z,9.97
2023-03-27T05:33:17.049Z,10.29
2023-03-27T05:35:48.874Z,10.74
2023-03-27T05:38:18.231Z,11.00
2023-03-27T05:41:04.533Z,10.89
2023-03-27T05:43:36.394Z,10.56
2023-03-27T05:46:04.859Z,10.18
2023-03-27T05:48:32.714Z,9.96
2023-03-27T05:51:05.814Z,10.15
2023-03-27T05:53:37.042Z,10.65
2023-03-27T05:56:27.857Z,11.21
2023-03-27T05:58:58.752Z,11.36
2023-03-27T06:01:28.406Z,11.57
2023-03-27T06:03:59.007Z,11.48
2023-03-27T06:06:50.819Z,11.78
2023-03-27T06:09:18.203Z,11.96
2023-03-27T06:12:03.176Z,12.10
2023-03-27T06:14:33.647Z,12.07
2023-03-27T06:17:15.610Z,12.28
2023-03-27T06:19:49.774Z,12.26
2023-03-27T06:22:17.325Z,12.29
2023-03-27T06:24:46.739Z,12.47
2023-03-27T06:27:18.767Z,12.71
2023-03-27T06:29:46.123Z,13.31
2023-03-27T06:32:14.521Z,13.82
2023-03-27T06:34:50.425Z,14.20
2023-03-27T06:37:37.343Z,14.55
2023-03-27T06:40:10.130Z,14.74
2023-03-27T06:42:39.429Z,14.93
2023-03-27T06:45:26.861Z,14.86
2023-03-27T06:48:29.544Z,14.95
2023-03-27T06:50:59.152Z,15.09
2023-03-27T06:53:28.371Z,15.38
2023-03-27T06:55:57.391Z,15.65
2023-03-27T06:58:27.802Z,16.20
2023-03-27T07:00:56.374Z,16.97
2023-03-27T07:03:23.747Z,17.50
2023-03-27T07:06:09.922Z,17.93
2023-03-27T07:08:52.648Z,18.73
2023-03-27T07:11:20.233Z,19.17
2023-03-27T07:13:57.127Z,19.45
2023-03-27T07:16:27.928Z,19.68
2023-03-27T07:18:56.076Z,19.35
2023-03-27T07:21:24.568Z,19.37
2023-03-27T07:23:52.665Z,19.24
2023-03-27T07:26:30.668Z,18.90
2023-03-27T07:29:11.385Z,19.12
2023-03-27T07:31:55.392Z,18.66
2023-03-27T07:34:34.287Z,18.53
2023-03-27T07:37:11.619Z,18.67
2023-03-27T07:39:49.312Z,18.90
2023-03-27T07:42:17.388Z,18.98
2023-03-27T07:44:58.278Z,19.00
2023-03-27T07:47:25.809Z,19.31
2023-03-27T07:49:53.885Z,19.59
2023-03-27T07:52:23.133Z,20.37
2023-03-27T07:55:00.343Z,20.74
2023-03-27T07:57:54.531Z,20.98
2023-03-27T08:00:26.753Z,21.58
2023-03-27T08:03:10.032Z,21.44
2023-03-27T08:05:43.126Z,22.08
2023-03-27T08:08:12.605Z,23.11
2023-03-27T08:11:13.430Z,23.18
2023-03-27T08:13:47.165Z,24.20
2023-03-27T08:16:17.271Z,24.78
2023-03-27T08:18:47.242Z,24.76
2023-03-27T08:21:15.106Z,25.79
2023-03-27T08:23:43.021Z,24.74
2023-03-27T08:26:28.988Z,25.77
2023-03-27T08:28:59.029Z,25.45
2023-03-27T08:31:30.924Z,25.62
2023-03-27T08:34:02.613Z,25.82
2023-03-27T08:36:44.552Z,26.08
2023-03-27T08:39:13.359Z,26.21
2023-03-27T08:41:53.082Z,25.85
2023-03-27T08:44:27.208Z,26.87
2023-03-27T08:47:01.110Z,26.10
2023-03-27T08:49:37.322Z,27.24
2023-03-27T08:52:25.080Z,28.37
2023-03-27T08:54:59.105Z,28.95
2023-03-27T08:57:45.793Z,29.54
2023-03-27T09:00:21.640Z,28.69
2023-03-27T09:03:22.684Z,28.77
2023-03-27T09:05:52.934Z,28.44
2023-03-27T09:08:23.515Z,27.39
2023-03-27T09:11:02.891Z,26.51
2023-03-27T09:13:46.987Z,26.09
2023-03-27T09:16:28.340Z,25.48
2023-03-27T09:18:57.678Z,25.44
2023-03-27T09:21:47.006Z,24.85
2023-03-27T09:24:30.091Z,24.47
2023-03-27T09:27:19.065Z,24.75
2023-03-27T09:30:20.017Z,24.81
2023-03-27T09:33:03.705Z,25.45
2023-03-27T09:35:32.364Z,24.77
2023-03-27T09:38:01.424Z,25.32
2023-03-27T09:40:35.324Z,26.05
2023-03-27T09:43:10.352Z,26.38
2023-03-27T09:45:41.084Z,25.97
2023-03-27T09:48:15.079Z,25.56
2023-03-27T09:50:47.630Z,25.69
2023-03-27T09:53:28.595Z,25.24
2023-03-27T09:56:18.591Z,24.86
2023-03-27T09:58:52.377Z,24.71
2023-03-27T10:01:29.728Z,24.27
2023-03-27T10:04:11.379Z,24.32
2023-03-27T10:06:44.807Z,23.33
2023-03-27T10:09:30.424Z,23.25
2023-03-27T10:12:11.415Z,22.96
2023-03-27T10:14:41.054Z,21.90
2023-03-27T10:17:23.732Z,21.91
2023-03-27T10:20:05.839Z,22.99
2023-03-27T10:22:41.746Z,23.88
2023-03-27T10:25:18.247Z,23.52
2023-03-27T10:27:54.789Z,23.35
2023-03-27T10:30:42.778Z,23.67
2023-03-27T10:33:37.595Z,23.21
2023-03-27T10:36:37.750Z,22.13
2023-03-27T10:39:14.702Z,21.45
2023-03-27T10:42:13.055Z,21.33
2023-03-27T10:44:46.722Z,21.45
2023-03-27T10:47:19.155Z,21.60
2023-03-27T10:52:33.012Z,22.55
2023-03-27T10:55:30.321Z,22.72
2023-03-27T10:58:02.665Z,23.13
2023-03-27T11:00:39.993Z,23.51
2023-03-27T11:03:21.046Z,22.98
2023-03-27T11:05:54.906Z,22.65
2023-03-27T11:08:42.888Z,22.65
2023-03-27T11:11:16.942Z,22.72
2023-03-27T11:13:49.540Z,22.99
2023-03-27T11:16:24.067Z,23.04
2023-03-27T11:19:11.638Z,23.00
2023-03-27T11:22:05.080Z,22.32
2023-03-27T11:24:42.387Z,21.88
2023-03-27T11:27:23.739Z,21.30
2023-03-27T11:29:57.585Z,21.05
2023-03-27T11:32:41.276Z,20.78
2023-03-27T11:35:16.249Z,20.71
2023-03-27T11:37:54.411Z,20.17
2023-03-27T11:40:28.742Z,19.20
2023-03-27T11:43:01.840Z,18.95
2023-03-27T11:45:44.708Z,18.62
2023-03-27T11:48:27.514Z,18.44
2023-03-27T11:51:04.699Z,18.43
2023-03-27T11:53:52.288Z,18.51
2023-03-27T11:56:56.616Z,18.53
2023-03-27T11:59:50.680Z,19.36
2023-03-27T12:02:30.235Z,20.06
2023-03-27T12:05:18.842Z,20.48
2023-03-27T12:07:59.948Z,20.59
2023-03-27T12:10:30.713Z,19.99
2023-03-27T12:13:09.472Z,19.78
2023-03-27T12:15:39.972Z,19.55
2023-03-27T12:18:20.140Z,19.41
2023-03-27T12:20:57.136Z,19.79
2023-03-27T12:23:33.654Z,20.15
2023-03-27T12:26:35.900Z,20.90
2023-03-27T12:29:33.024Z,21.55
2023-03-27T12:32:21.864Z,21.46
2023-03-27T12:34:57.975Z,21.09
2023-03-27T12:37:35.021Z,20.90
2023-03-27T12:40:02.786Z,20.59
2023-03-27T12:42:43.866Z,20.19
2023-03-27T12:45:14.290Z,19.78
2023-03-27T12:47:45.820Z,19.27
2023-03-27T12:50:22.780Z,19.08
2023-03-27T12:52:53.911Z,19.32
2023-03-27T12:55:32.812Z,18.59
2023-03-27T12:58:04.482Z,18.63
2023-03-27T13:01:02.784Z,18.46
2023-03-27T13:04:00.407Z,18.63
2023-03-27T13:06:28.518Z,18.73
2023-03-27T13:09:00.188Z,18.71
2023-03-27T13:12:02.267Z,18.72
2023-03-27T13:14:32.715Z,18.95
2023-03-27T13:17:00.465Z,19.06
2023-03-27T13:19:40.272Z,19.33
2023-03-27T13:22:19.638Z,19.65
2023-03-27T13:24:47.835Z,19.91
2023-03-27T13:27:22.346Z,20.26
2023-03-27T13:29:52.109Z,20.62
2023-03-27T13:32:40.418Z,20.64
2023-03-27T13:35:24.555Z,20.30
2023-03-27T13:37:52.394Z,20.20
2023-03-27T13:40:29.869Z,19.54
2023-03-27T13:43:08.198Z,18.74
2023-03-27T13:45:51.761Z,18.54
2023-03-27T13:49:00.861Z,18.34
2023-03-27T13:51:48.532Z,18.31
2023-03-27T13:54:16.322Z,18.06
2023-03-27T13:56:53.474Z,17.64
2023-03-27T13:59:32.522Z,17.35
2023-03-27T14:02:33.608Z,17.45
2023-03-27T14:05:24.506Z,17.38
2023-03-27T14:08:13.993Z,17.46
2023-03-27T14:11:29.406Z,17.29
2023-03-27T14:14:19.244Z,17.18
2023-03-27T14:16:50.628Z,17.24
2023-03-27T14:19:21.625Z,17.26
2023-03-27T14:21:51.448Z,17.26
2023-03-27T14:24:26.120Z,17.28
2023-03-27T14:27:03.642Z,17.24
2023-03-27T14:29:32.677Z,17.31
2023-03-27T14:32:05.169Z,17.22
2023-03-27T14:34:47.271Z,17.09
2023-03-27T14:38:00.297Z,17.01
2023-03-27T14:40:48.188Z,16.88
2023-03-27T14:43:19.554Z,16.88
2023-03-27T14:45:54.848Z,16.81
2023-03-27T14:48:26.285Z,16.70
2023-03-27T14:50:58.951Z,16.65
2023-03-27T14:54:06.376Z,16.50
2023-03-27T14:56:55.358Z,16.10
2023-03-27T14:59:36.831Z,15.98
2023-03-27T15:02:35.370Z,15.91
2023-03-27T15:05:13.196Z,15.75
2023-03-27T15:07:47.282Z,15.70
2023-03-27T15:10:24.434Z,15.54
2023-03-27T15:13:10.930Z,15.40
2023-03-27T15:15:47.229Z,15.32
2023-03-27T15:18:25.351Z,15.11
2023-03-27T15:20:54.614Z,14.95
2023-03-27T15:23:34.116Z,14.94
2023-03-27T15:26:07.622Z,14.85
2023-03-27T15:29:02.261Z,14.75
2023-03-27T15:31:31.639Z,14.70
2023-03-27T15:34:16.995Z,14.63
2023-03-27T15:36:47.184Z,14.56
2023-03-27T15:39:22.624Z,14.52
2023-03-27T15:41:53.554Z,14.41
2023-03-27T15:44:24.878Z,14.31
2023-03-27T15:46:58.229Z,14.23
2023-03-27T15:49:38.912Z,14.12
2023-03-27T15:52:31.897Z,13.99
2023-03-27T15:55:01.887Z,13.82
2023-03-27T15:57:29.953Z,13.75
2023-03-27T16:00:08.830Z,13.63
2023-03-27T16:02:41.869Z,13.57
2023-03-27T16:05:17.673Z,13.48
2023-03-27T16:07:48.813Z,13.42
2023-03-27T16:10:34.449Z,13.32
2023-03-27T16:13:04.303Z,13.21
2023-03-27T16:15:38.057Z,13.18
2023-03-27T16:18:30.817Z,13.13
2023-03-27T16:21:16.464Z,13.05
2023-03-27T16:23:44.543Z,13.02
2023-03-27T16:26:18.815Z,12.98
2023-03-27T16:28:46.816Z,12.91
2023-03-27T16:31:19.489Z,12.86
2023-03-27T16:33:47.453Z,12.80
2023-03-27T16:36:20.454Z,12.81
2023-03-27T16:38:47.468Z,12.74
2023-03-27T16:41:16.639Z,12.65
2023-03-27T16:43:45.111Z,12.59
2023-03-27T16:46:22.662Z,12.57
2023-03-27T16:48:52.214Z,12.59
2023-03-27T16:51:21.014Z,12.57
2023-03-27T16:53:48.225Z,12.56
2023-03-27T16:56:16.169Z,12.57
2023-03-27T16:58:43.397Z,12.61
2023-03-27T17:01:11.137Z,12.55
2023-03-27T17:03:38.892Z,12.57
2023-03-27T17:06:09.014Z,12.54
2023-03-27T17:08:37.336Z,12.42
2023-03-27T17:11:10.282Z,12.45
2023-03-27T17:13:40.841Z,12.48
2023-03-27T17:16:09.922Z,12.41
2023-03-27T17:18:37.172Z,12.07
2023-03-27T17:21:04.730Z,11.81
2023-03-27T17:23:31.953Z,11.58
2023-03-27T17:26:04.068Z,11.37
2023-03-27T17:28:31.785Z,11.13
2023-03-27T17:31:04.543Z,11.14
2023-03-27T17:33:33.127Z,11.24
2023-03-27T17:36:00.677Z,11.30
2023-03-27T17:38:28.441Z,11.34
2023-03-27T17:40:55.932Z,11.42
2023-03-27T17:43:23.178Z,11.46
2023-03-27T17:45:51.446Z,11.61
2023-03-27T17:48:18.860Z,11.63
2023-03-27T17:50:54.747Z,11.72
2023-03-27T17:53:29.354Z,11.70
2023-03-27T17:55:57.714Z,11.79
2023-03-27T17:58:29.196Z,11.79
2023-03-27T18:00:56.545Z,11.83
2023-03-27T18:03:24.168Z,11.87
2023-03-27T18:05:51.531Z,11.87
2023-03-27T18:08:20.094Z,11.82
2023-03-27T18:10:50.555Z,11.87
2023-03-27T18:13:18.975Z,11.89
2023-03-27T18:15:46.709Z,11.94
2023-03-27T18:18:13.894Z,11.97
2023-03-27T18:20:41.645Z,12.01
2023-03-27T18:23:08.670Z,12.03
2023-03-27T18:25:38.134Z,12.04
2023-03-27T18:28:05.795Z,12.09
2023-03-27T18:30:32.873Z,12.11
2023-03-27T18:33:00.185Z,12.11
2023-03-27T18:35:27.613Z,12.08
2023-03-27T18:37:54.751Z,12.06
2023-03-27T18:40:22.715Z,12.00
2023-03-27T18:42:50.267Z,11.92
2023-03-27T18:45:18.288Z,11.97
2023-03-27T18:47:45.952Z,12.02
2023-03-27T18:50:14.604Z,12.02
2023-03-27T18:52:42.109Z,12.04
2023-03-27T18:55:11.497Z,12.13
2023-03-27T18:57:38.799Z,12.08
2023-03-27T19:00:15.614Z,12.14
2023-03-27T19:02:43.019Z,12.20
2023-03-27T19:05:11.053Z,12.15
2023-03-27T19:07:45.001Z,12.23
2023-03-27T19:10:13.169Z,12.17
2023-03-27T19:12:40.463Z,12.22
2023-03-27T19:15:19.767Z,12.26
2023-03-27T19:17:53.900Z,12.23
2023-03-27T19:20:47.784Z,12.16
2023-03-27T19:23:23.148Z,12.18
2023-03-27T19:25:52.144Z,12.16
2023-03-27T19:28:20.159Z,12.08
2023-03-27T19:30:48.252Z,12.03
2023-03-27T19:33:15.906Z,11.98
2023-03-27T19:35:42.995Z,11.98
2023-03-27T19:38:12.651Z,12.02
2023-03-27T19:40:39.950Z,11.99
2023-03-27T19:43:07.265Z,12.01
2023-03-27T19:45:34.722Z,12.01
2023-03-27T19:48:01.982Z,11.99
2023-03-27T19:50:29.608Z,11.95
2023-03-27T19:53:14.726Z,11.93
2023-03-27T19:55:43.186Z,11.87
2023-03-27T19:58:12.500Z,11.88
2023-03-27T20:00:39.615Z,11.83
2023-03-27T20:03:10.584Z,11.84
2023-03-27T20:05:39.658Z,11.85
2023-03-27T20:08:06.980Z,11.81
2023-03-27T20:10:34.562Z,11.79
2023-03-27T20:13:01.944Z,11.77
2023-03-27T20:15:30.053Z,11.73
2023-03-27T20:17:57.307Z,11.73
2023-03-27T20:20:24.523Z,11.76
2023-03-27T20:22:57.954Z,11.72
2023-03-27T20:25:25.830Z,11.65
2023-03-27T20:27:53.246Z,11.62
2023-03-27T20:30:20.609Z,11.53
2023-03-27T20:32:49.638Z,11.53
2023-03-27T20:35:24.307Z,11.58
2023-03-27T20:37:58.070Z,11.52
2023-03-27T20:40:30.284Z,11.54
2023-03-27T20:43:06.145Z,11.59
2023-03-27T20:45:33.556Z,11.61
2023-03-27T20:48:03.543Z,11.47
2023-03-27T20:50:32.012Z,11.47
2023-03-27T20:52:59.524Z,11.41
2023-03-27T20:55:33.689Z,11.34
2023-03-27T20:58:06.802Z,11.27
2023-03-27T21:00:34.848Z,11.28
2023-03-27T21:03:02.558Z,11.23
2023-03-27T21:05:32.461Z,11.11
2023-03-27T21:08:00.054Z,11.05
2023-03-27T21:10:27.432Z,10.98
2023-03-27T21:12:57.137Z,10.92
2023-03-27T21:15:24.565Z,10.91
2023-03-27T21:17:51.747Z,10.80
2023-03-27T21:20:19.001Z,10.73
2023-03-27T21:22:46.535Z,10.61
2023-03-27T21:25:13.843Z,10.41
2023-03-27T21:27:41.325Z,10.30
2023-03-27T21:30:10.144Z,10.23
2023-03-27T21:32:37.237Z,10.08
2023-03-27T21:35:04.512Z,9.97
2023-03-27T21:37:32.625Z,9.89
2023-03-27T21:39:59.966Z,9.87
2023-03-27T21:42:27.354Z,9.82
2023-03-27T21:44:56.682Z,9.77
2023-03-27T21:47:31.623Z,9.71
2023-03-27T21:50:01.904Z,9.70
2023-03-27T21:52:29.022Z,9.70
2023-03-27T21:55:02.468Z,9.70
2023-03-27T21:57:30.626Z,9.69
2023-03-27T21:59:58.369Z,9.67
2023-03-27T22:02:25.996Z,9.62
2023-03-27T22:04:53.559Z,9.66
2023-03-27T22:07:21.037Z,9.57
2023-03-27T22:09:48.099Z,9.59
2023-03-27T22:12:16.797Z,9.60
2023-03-27T22:14:43.990Z,9.56
2023-03-27T22:17:11.430Z,9.56
2023-03-27T22:19:38.660Z,9.61
2023-03-27T22:22:05.910Z,9.63
2023-03-27T22:24:33.240Z,9.54
2023-03-27T22:27:00.580Z,9.61
2023-03-27T22:29:27.985Z,9.62
2023-03-27T22:31:55.151Z,9.59
2023-03-27T22:34:22.588Z,9.55
2023-03-27T22:36:49.679Z,9.55
2023-03-27T22:39:17.143Z,9.50
2023-03-27T22:41:44.558Z,9.45
2023-03-27T22:44:11.975Z,9.44
2023-03-27T22:46:39.200Z,9.50
2023-03-27T22:49:06.829Z,9.42
2023-03-27T22:51:34.038Z,9.38
2023-03-27T22:54:01.182Z,9.33
2023-03-27T22:56:28.474Z,9.33
2023-03-27T22:58:55.806Z,9.32
2023-03-27T23:01:23.159Z,9.25
2023-03-27T23:03:50.614Z,9.23
2023-03-27T23:06:20.004Z,9.18
2023-03-27T23:08:49.213Z,9.13
2023-03-27T23:11:17.805Z,9.11
2023-03-27T23:13:45.284Z,9.10
2023-03-27T23:16:15.393Z,9.10
2023-03-27T23:18:42.838Z,9.13
2023-03-27T23:21:11.801Z,9.12
2023-03-27T23:23:40.735Z,9.14
2023-03-27T23:26:08.874Z,9.16
2023-03-27T23:28:38.866Z,9.18
2023-03-27T23:31:10.581Z,9.22
2023-03-27T23:33:40.124Z,9.26
2023-03-27T23:36:09.186Z,9.23
2023-03-27T23:38:37.628Z,9.31
2023-03-27T23:41:06.917Z,9.33
2023-03-27T23:43:35.388Z,9.31
2023-03-27T23:46:04.734Z,9.36
2023-03-27T23:48:32.082Z,9.36
2023-03-27T23:50:59.358Z,9.44
2023-03-27T23:53:28.322Z,9.48
2023-03-27T23:55:57.679Z,9.52
2023-03-27T23:58:29.912Z,9.59
